sensor_id;sensor_type;location;lat;lon;timestamp;P1;durP1;ratioP1;P2;durP2;ratioP2
64520;SDS011;50896;46.714;17.322;2023-06-22T12:12:53;16.75;;;12.85;;
64520;SDS011;50896;46.714;17.322;2023-06-22T12:15:20;13.65;;;12.23;;
64520;SDS011;50896;46.714;17.322;2023-06-22T12:17:47;16.95;;;11.25;;
64520;SDS011;50896;46.714;17.322;2023-06-22T12:20:15;12.20;;;10.90;;
64520;SDS011;50896;46.714;17.322;2023-06-22T12:22:42;16.83;;;11.68;;
64520;SDS011;50896;46.714;17.322;2023-06-22T12:25:09;14.57;;;11.20;;
64520;SDS011;50896;46.714;17.322;2023-06-22T12:27:37;15.77;;;11.98;;
64520;SDS011;50896;46.714;17.322;2023-06-22T12:30:04;12.23;;;10.95;;
64520;SDS011;50896;46.714;17.322;2023-06-22T12:32:31;13.52;;;12.15;;
64520;SDS011;50896;46.714;17.322;2023-06-22T12:34:58;14.45;;;11.05;;
64520;SDS011;50896;46.714;17.322;2023-06-22T12:37:25;13.90;;;11.23;;
64520;SDS011;50896;46.714;17.322;2023-06-22T12:39:54;13.18;;;10.93;;
64520;SDS011;50896;46.714;17.322;2023-06-22T12:42:21;13.15;;;10.95;;
64520;SDS011;50896;46.714;17.322;2023-06-22T12:44:48;15.35;;;11.13;;
64520;SDS011;50896;46.714;17.322;2023-06-22T12:47:15;28.83;;;12.50;;
64520;SDS011;50896;46.714;17.322;2023-06-22T12:49:41;15.55;;;11.30;;
64520;SDS011;50896;46.714;17.322;2023-06-22T12:52:09;12.18;;;10.57;;
64520;SDS011;50896;46.714;17.322;2023-06-22T12:54:37;14.95;;;11.45;;
64520;SDS011;50896;46.714;17.322;2023-06-22T12:57:20;14.52;;;11.32;;
64520;SDS011;50896;46.714;17.322;2023-06-22T12:59:47;16.27;;;11.00;;
64520;SDS011;50896;46.714;17.322;2023-06-22T13:02:13;11.93;;;10.35;;
64520;SDS011;50896;46.714;17.322;2023-06-22T13:04:40;18.42;;;10.95;;
64520;SDS011;50896;46.714;17.322;2023-06-22T13:07:08;15.13;;;11.07;;
64520;SDS011;50896;46.714;17.322;2023-06-22T13:09:47;13.48;;;11.13;;
64520;SDS011;50896;46.714;17.322;2023-06-22T13:12:19;17.65;;;11.13;;
64520;SDS011;50896;46.714;17.322;2023-06-22T13:14:47;12.82;;;11.45;;
64520;SDS011;50896;46.714;17.322;2023-06-22T13:17:14;11.73;;;10.38;;
64520;SDS011;50896;46.714;17.322;2023-06-22T13:19:41;12.57;;;11.13;;
64520;SDS011;50896;46.714;17.322;2023-06-22T13:22:25;12.20;;;11.02;;
64520;SDS011;50896;46.714;17.322;2023-06-22T13:24:59;16.38;;;11.43;;
64520;SDS011;50896;46.714;17.322;2023-06-22T13:27:26;14.30;;;10.68;;
64520;SDS011;50896;46.714;17.322;2023-06-22T13:29:53;13.65;;;10.80;;
64520;SDS011;50896;46.714;17.322;2023-06-22T13:32:20;15.13;;;11.25;;
64520;SDS011;50896;46.714;17.322;2023-06-22T13:34:46;16.42;;;11.48;;
64520;SDS011;50896;46.714;17.322;2023-06-22T13:37:13;18.98;;;11.70;;
64520;SDS011;50896;46.714;17.322;2023-06-22T13:39:41;17.20;;;12.00;;
64520;SDS011;50896;46.714;17.322;2023-06-22T13:42:08;12.43;;;11.15;;
64520;SDS011;50896;46.714;17.322;2023-06-22T13:44:35;13.10;;;10.95;;
64520;SDS011;50896;46.714;17.322;2023-06-22T13:47:02;14.25;;;10.65;;
64520;SDS011;50896;46.714;17.322;2023-06-22T13:49:29;15.13;;;12.02;;
64520;SDS011;50896;46.714;17.322;2023-06-22T13:51:56;13.10;;;11.20;;
64520;SDS011;50896;46.714;17.322;2023-06-22T13:54:23;16.83;;;12.27;;
64520;SDS011;50896;46.714;17.322;2023-06-22T13:56:56;12.68;;;11.38;;
64520;SDS011;50896;46.714;17.322;2023-06-22T13:59:23;16.75;;;11.48;;
64520;SDS011;50896;46.714;17.322;2023-06-22T14:01:50;13.63;;;11.63;;
64520;SDS011;50896;46.714;17.322;2023-06-22T14:04:17;14.52;;;11.15;;
64520;SDS011;50896;46.714;17.322;2023-06-22T14:06:43;14.68;;;11.40;;
64520;SDS011;50896;46.714;17.322;2023-06-22T14:09:10;13.55;;;11.15;;
64520;SDS011;50896;46.714;17.322;2023-06-22T14:11:37;20.90;;;11.10;;
64520;SDS011;50896;46.714;17.322;2023-06-22T14:14:04;15.70;;;11.50;;
64520;SDS011;50896;46.714;17.322;2023-06-22T14:16:31;15.07;;;10.98;;
64520;SDS011;50896;46.714;17.322;2023-06-22T14:18:57;14.38;;;11.43;;
64520;SDS011;50896;46.714;17.322;2023-06-22T14:21:25;13.20;;;10.60;;
64520;SDS011;50896;46.714;17.322;2023-06-22T14:23:52;15.45;;;11.07;;
64520;SDS011;50896;46.714;17.322;2023-06-22T14:26:19;12.25;;;10.85;;
64520;SDS011;50896;46.714;17.322;2023-06-22T14:28:47;13.45;;;10.50;;
64520;SDS011;50896;46.714;17.322;2023-06-22T14:31:17;13.60;;;11.10;;
64520;SDS011;50896;46.714;17.322;2023-06-22T14:33:45;12.35;;;10.77;;
64520;SDS011;50896;46.714;17.322;2023-06-22T14:36:14;15.68;;;10.60;;
64520;SDS011;50896;46.714;17.322;2023-06-22T14:38:42;11.95;;;10.75;;
64520;SDS011;50896;46.714;17.322;2023-06-22T14:41:09;11.52;;;9.32;;
64520;SDS011;50896;46.714;17.322;2023-06-22T14:43:44;11.63;;;9.65;;
64520;SDS011;50896;46.714;17.322;2023-06-22T14:46:13;13.07;;;10.18;;
64520;SDS011;50896;46.714;17.322;2023-06-22T14:48:41;15.88;;;10.10;;
64520;SDS011;50896;46.714;17.322;2023-06-22T14:51:09;13.55;;;10.43;;
64520;SDS011;50896;46.714;17.322;2023-06-22T14:53:41;14.95;;;10.45;;
64520;SDS011;50896;46.714;17.322;2023-06-22T14:56:08;12.63;;;9.85;;
64520;SDS011;50896;46.714;17.322;2023-06-22T14:58:35;13.23;;;10.10;;
64520;SDS011;50896;46.714;17.322;2023-06-22T15:01:02;11.20;;;9.98;;
64520;SDS011;50896;46.714;17.322;2023-06-22T15:03:30;13.82;;;10.35;;
64520;SDS011;50896;46.714;17.322;2023-06-22T15:05:59;13.88;;;10.73;;
64520;SDS011;50896;46.714;17.322;2023-06-22T15:08:27;14.48;;;10.60;;
64520;SDS011;50896;46.714;17.322;2023-06-22T15:10:54;13.27;;;10.25;;
64520;SDS011;50896;46.714;17.322;2023-06-22T15:13:21;12.57;;;9.55;;
64520;SDS011;50896;46.714;17.322;2023-06-22T15:15:49;17.73;;;10.85;;
64520;SDS011;50896;46.714;17.322;2023-06-22T15:18:16;16.25;;;10.77;;
64520;SDS011;50896;46.714;17.322;2023-06-22T15:20:43;14.70;;;9.80;;
64520;SDS011;50896;46.714;17.322;2023-06-22T15:23:12;11.57;;;9.98;;
64520;SDS011;50896;46.714;17.322;2023-06-22T15:25:39;13.68;;;10.18;;
64520;SDS011;50896;46.714;17.322;2023-06-22T15:28:06;13.57;;;9.93;;
64520;SDS011;50896;46.714;17.322;2023-06-22T15:30:33;11.57;;;10.23;;
64520;SDS011;50896;46.714;17.322;2023-06-22T15:33:00;11.65;;;10.25;;
64520;SDS011;50896;46.714;17.322;2023-06-22T15:35:28;12.23;;;10.10;;
64520;SDS011;50896;46.714;17.322;2023-06-22T15:37:57;12.27;;;10.07;;
64520;SDS011;50896;46.714;17.322;2023-06-22T15:40:26;15.27;;;10.40;;
64520;SDS011;50896;46.714;17.322;2023-06-22T15:42:53;12.63;;;9.45;;
64520;SDS011;50896;46.714;17.322;2023-06-22T15:45:20;13.90;;;9.73;;
64520;SDS011;50896;46.714;17.322;2023-06-22T15:47:46;14.25;;;10.82;;
64520;SDS011;50896;46.714;17.322;2023-06-22T15:50:13;14.27;;;10.50;;
64520;SDS011;50896;46.714;17.322;2023-06-22T15:52:40;14.05;;;9.82;;
64520;SDS011;50896;46.714;17.322;2023-06-22T15:55:07;10.90;;;9.75;;
64520;SDS011;50896;46.714;17.322;2023-06-22T15:57:36;12.30;;;9.82;;
64520;SDS011;50896;46.714;17.322;2023-06-22T16:00:03;13.95;;;10.68;;
64520;SDS011;50896;46.714;17.322;2023-06-22T16:02:32;11.32;;;9.65;;
64520;SDS011;50896;46.714;17.322;2023-06-22T16:04:59;13.48;;;10.48;;
64520;SDS011;50896;46.714;17.322;2023-06-22T16:07:27;15.27;;;10.70;;
64520;SDS011;50896;46.714;17.322;2023-06-22T16:09:54;11.40;;;9.77;;
64520;SDS011;50896;46.714;17.322;2023-06-22T16:12:21;11.88;;;10.27;;
64520;SDS011;50896;46.714;17.322;2023-06-22T16:14:49;12.43;;;10.35;;
64520;SDS011;50896;46.714;17.322;2023-06-22T16:17:16;11.23;;;9.57;;
64520;SDS011;50896;46.714;17.322;2023-06-22T16:19:43;11.95;;;10.35;;
64520;SDS011;50896;46.714;17.322;2023-06-22T16:22:10;10.38;;;9.30;;
64520;SDS011;50896;46.714;17.322;2023-06-22T16:24:37;11.10;;;10.00;;
64520;SDS011;50896;46.714;17.322;2023-06-22T16:27:03;12.27;;;9.77;;
64520;SDS011;50896;46.714;17.322;2023-06-22T16:29:31;10.20;;;8.68;;
64520;SDS011;50896;46.714;17.322;2023-06-22T16:31:58;10.23;;;9.10;;
64520;SDS011;50896;46.714;17.322;2023-06-22T16:34:24;10.82;;;9.15;;
64520;SDS011;50896;46.714;17.322;2023-06-22T16:36:51;11.40;;;10.13;;
64520;SDS011;50896;46.714;17.322;2023-06-22T16:39:19;15.63;;;11.75;;
64520;SDS011;50896;46.714;17.322;2023-06-22T16:41:45;13.85;;;10.48;;
64520;SDS011;50896;46.714;17.322;2023-06-22T16:44:12;11.63;;;10.25;;
64520;SDS011;50896;46.714;17.322;2023-06-22T16:46:39;14.25;;;10.50;;
64520;SDS011;50896;46.714;17.322;2023-06-22T16:49:07;13.02;;;9.93;;
64520;SDS011;50896;46.714;17.322;2023-06-22T16:51:34;11.07;;;9.65;;
64520;SDS011;50896;46.714;17.322;2023-06-22T16:54:01;12.00;;;9.80;;
64520;SDS011;50896;46.714;17.322;2023-06-22T16:56:28;15.32;;;10.25;;
64520;SDS011;50896;46.714;17.322;2023-06-22T16:58:56;11.45;;;10.18;;
64520;SDS011;50896;46.714;17.322;2023-06-22T17:01:32;12.60;;;9.88;;
64520;SDS011;50896;46.714;17.322;2023-06-22T17:06:31;14.05;;;10.65;;
64520;SDS011;50896;46.714;17.322;2023-06-22T17:09:02;10.82;;;9.70;;
64520;SDS011;50896;46.714;17.322;2023-06-22T17:11:31;12.80;;;9.43;;
64520;SDS011;50896;46.714;17.322;2023-06-22T17:13:58;11.52;;;9.38;;
64520;SDS011;50896;46.714;17.322;2023-06-22T17:16:25;11.05;;;9.13;;
64520;SDS011;50896;46.714;17.322;2023-06-22T17:18:54;9.90;;;8.90;;
64520;SDS011;50896;46.714;17.322;2023-06-22T17:21:23;8.98;;;8.05;;
64520;SDS011;50896;46.714;17.322;2023-06-22T17:23:50;9.30;;;8.13;;
64520;SDS011;50896;46.714;17.322;2023-06-22T17:26:17;12.63;;;8.63;;
64520;SDS011;50896;46.714;17.322;2023-06-22T17:31:14;12.60;;;9.15;;
64520;SDS011;50896;46.714;17.322;2023-06-22T17:33:41;11.65;;;8.77;;
64520;SDS011;50896;46.714;17.322;2023-06-22T17:36:11;10.55;;;8.80;;
64520;SDS011;50896;46.714;17.322;2023-06-22T17:38:42;15.80;;;9.77;;
64520;SDS011;50896;46.714;17.322;2023-06-22T17:41:09;11.98;;;8.38;;
64520;SDS011;50896;46.714;17.322;2023-06-22T17:43:54;11.13;;;8.18;;
64520;SDS011;50896;46.714;17.322;2023-06-22T17:46:24;12.52;;;8.80;;
64520;SDS011;50896;46.714;17.322;2023-06-22T17:48:52;11.73;;;10.02;;
64520;SDS011;50896;46.714;17.322;2023-06-22T17:51:19;12.63;;;10.40;;
64520;SDS011;50896;46.714;17.322;2023-06-22T17:53:47;11.55;;;10.32;;
64520;SDS011;50896;46.714;17.322;2023-06-22T17:56:16;11.35;;;10.00;;
64520;SDS011;50896;46.714;17.322;2023-06-22T17:58:53;13.50;;;10.25;;
64520;SDS011;50896;46.714;17.322;2023-06-22T18:01:28;11.38;;;10.27;;
64520;SDS011;50896;46.714;17.322;2023-06-22T18:04:09;13.50;;;10.20;;
64520;SDS011;50896;46.714;17.322;2023-06-22T18:06:41;12.33;;;10.23;;
64520;SDS011;50896;46.714;17.322;2023-06-22T18:09:13;14.82;;;11.05;;
64520;SDS011;50896;46.714;17.322;2023-06-22T18:14:21;14.90;;;10.35;;
64520;SDS011;50896;46.714;17.322;2023-06-22T18:16:49;15.68;;;10.32;;
64520;SDS011;50896;46.714;17.322;2023-06-22T18:19:17;12.02;;;9.60;;
64520;SDS011;50896;46.714;17.322;2023-06-22T18:21:45;12.60;;;10.07;;
64520;SDS011;50896;46.714;17.322;2023-06-22T18:24:16;13.85;;;9.43;;
64520;SDS011;50896;46.714;17.322;2023-06-22T18:26:44;10.55;;;9.40;;
64520;SDS011;50896;46.714;17.322;2023-06-22T18:29:12;14.40;;;10.35;;
64520;SDS011;50896;46.714;17.322;2023-06-22T18:31:39;18.85;;;11.23;;
64520;SDS011;50896;46.714;17.322;2023-06-22T18:34:06;21.17;;;10.90;;
64520;SDS011;50896;46.714;17.322;2023-06-22T18:36:38;16.13;;;10.40;;
64520;SDS011;50896;46.714;17.322;2023-06-22T18:39:13;17.00;;;11.27;;
64520;SDS011;50896;46.714;17.322;2023-06-22T18:41:41;14.70;;;10.45;;
64520;SDS011;50896;46.714;17.322;2023-06-22T18:44:23;18.90;;;11.20;;
64520;SDS011;50896;46.714;17.322;2023-06-22T18:46:52;16.08;;;11.32;;
64520;SDS011;50896;46.714;17.322;2023-06-22T18:49:24;17.35;;;11.65;;
64520;SDS011;50896;46.714;17.322;2023-06-22T18:51:56;15.50;;;11.30;;
64520;SDS011;50896;46.714;17.322;2023-06-22T18:54:32;12.88;;;10.95;;
64520;SDS011;50896;46.714;17.322;2023-06-22T18:57:02;17.50;;;10.77;;
64520;SDS011;50896;46.714;17.322;2023-06-22T18:59:59;16.55;;;11.65;;
64520;SDS011;50896;46.714;17.322;2023-06-22T19:02:45;16.35;;;11.40;;
64520;SDS011;50896;46.714;17.322;2023-06-22T19:05:18;17.08;;;11.05;;
64520;SDS011;50896;46.714;17.322;2023-06-22T19:08:05;15.32;;;10.93;;
64520;SDS011;50896;46.714;17.322;2023-06-22T19:10:42;17.05;;;10.82;;
64520;SDS011;50896;46.714;17.322;2023-06-22T19:15:40;24.40;;;11.45;;
64520;SDS011;50896;46.714;17.322;2023-06-22T19:18:23;22.20;;;11.82;;
64520;SDS011;50896;46.714;17.322;2023-06-22T19:21:06;26.02;;;12.57;;
64520;SDS011;50896;46.714;17.322;2023-06-22T19:23:41;23.55;;;11.48;;
64520;SDS011;50896;46.714;17.322;2023-06-22T19:26:10;16.05;;;11.23;;
64520;SDS011;50896;46.714;17.322;2023-06-22T19:28:55;16.35;;;10.75;;
64520;SDS011;50896;46.714;17.322;2023-06-22T19:31:26;18.90;;;10.48;;
64520;SDS011;50896;46.714;17.322;2023-06-22T19:34:01;18.33;;;11.13;;
64520;SDS011;50896;46.714;17.322;2023-06-22T19:36:31;24.65;;;11.80;;
64520;SDS011;50896;46.714;17.322;2023-06-22T19:39:00;19.88;;;10.75;;
64520;SDS011;50896;46.714;17.322;2023-06-22T19:41:28;21.80;;;10.40;;
64520;SDS011;50896;46.714;17.322;2023-06-22T19:43:55;22.13;;;10.80;;
64520;SDS011;50896;46.714;17.322;2023-06-22T19:46:26;16.02;;;10.80;;
64520;SDS011;50896;46.714;17.322;2023-06-22T19:48:55;20.67;;;11.10;;
64520;SDS011;50896;46.714;17.322;2023-06-22T19:51:23;15.30;;;10.90;;
64520;SDS011;50896;46.714;17.322;2023-06-22T19:53:50;17.58;;;11.02;;
64520;SDS011;50896;46.714;17.322;2023-06-22T19:56:20;16.70;;;10.20;;
64520;SDS011;50896;46.714;17.322;2023-06-22T19:58:49;15.75;;;10.88;;
64520;SDS011;50896;46.714;17.322;2023-06-22T20:01:16;16.75;;;10.77;;
64520;SDS011;50896;46.714;17.322;2023-06-22T20:03:43;19.00;;;10.43;;
64520;SDS011;50896;46.714;17.322;2023-06-22T20:06:11;15.93;;;10.50;;
64520;SDS011;50896;46.714;17.322;2023-06-22T20:08:47;11.70;;;10.27;;
64520;SDS011;50896;46.714;17.322;2023-06-22T20:11:23;16.80;;;10.77;;
64520;SDS011;50896;46.714;17.322;2023-06-22T20:13:51;14.35;;;10.45;;
64520;SDS011;50896;46.714;17.322;2023-06-22T20:16:20;15.88;;;10.48;;
64520;SDS011;50896;46.714;17.322;2023-06-22T20:18:49;16.05;;;10.93;;
64520;SDS011;50896;46.714;17.322;2023-06-22T20:21:38;14.65;;;10.38;;
64520;SDS011;50896;46.714;17.322;2023-06-22T20:24:06;15.75;;;10.02;;
64520;SDS011;50896;46.714;17.322;2023-06-22T20:26:41;17.73;;;11.57;;
64520;SDS011;50896;46.714;17.322;2023-06-22T20:32:12;13.95;;;10.38;;
64520;SDS011;50896;46.714;17.322;2023-06-22T20:34:41;15.73;;;10.23;;
64520;SDS011;50896;46.714;17.322;2023-06-22T20:37:12;14.10;;;10.35;;
64520;SDS011;50896;46.714;17.322;2023-06-22T20:39:41;13.40;;;10.05;;
64520;SDS011;50896;46.714;17.322;2023-06-22T20:42:13;15.40;;;10.48;;
64520;SDS011;50896;46.714;17.322;2023-06-22T20:44:40;18.05;;;10.80;;
64520;SDS011;50896;46.714;17.322;2023-06-22T20:47:07;13.65;;;9.30;;
64520;SDS011;50896;46.714;17.322;2023-06-22T20:49:36;13.57;;;10.75;;
64520;SDS011;50896;46.714;17.322;2023-06-22T20:52:03;12.60;;;10.25;;
64520;SDS011;50896;46.714;17.322;2023-06-22T20:54:33;19.27;;;10.65;;
64520;SDS011;50896;46.714;17.322;2023-06-22T20:57:00;13.38;;;10.95;;
64520;SDS011;50896;46.714;17.322;2023-06-22T20:59:27;14.55;;;11.02;;
64520;SDS011;50896;46.714;17.322;2023-06-22T21:01:56;18.35;;;11.43;;
64520;SDS011;50896;46.714;17.322;2023-06-22T21:04:23;16.52;;;11.02;;
64520;SDS011;50896;46.714;17.322;2023-06-22T21:06:50;15.68;;;11.38;;
64520;SDS011;50896;46.714;17.322;2023-06-22T21:09:18;20.63;;;11.50;;
64520;SDS011;50896;46.714;17.322;2023-06-22T21:11:45;15.75;;;11.23;;
64520;SDS011;50896;46.714;17.322;2023-06-22T21:14:12;14.68;;;11.07;;
64520;SDS011;50896;46.714;17.322;2023-06-22T21:16:45;16.65;;;10.82;;
64520;SDS011;50896;46.714;17.322;2023-06-22T21:19:12;16.95;;;10.65;;
64520;SDS011;50896;46.714;17.322;2023-06-22T21:21:39;17.13;;;11.07;;
64520;SDS011;50896;46.714;17.322;2023-06-22T21:24:06;13.40;;;10.68;;
64520;SDS011;50896;46.714;17.322;2023-06-22T21:26:33;16.65;;;11.63;;
64520;SDS011;50896;46.714;17.322;2023-06-22T21:29:00;20.67;;;12.13;;
64520;SDS011;50896;46.714;17.322;2023-06-22T21:31:27;16.50;;;11.70;;
64520;SDS011;50896;46.714;17.322;2023-06-22T21:33:54;17.45;;;12.07;;
64520;SDS011;50896;46.714;17.322;2023-06-22T21:36:21;18.58;;;11.50;;
64520;SDS011;50896;46.714;17.322;2023-06-22T21:38:48;14.23;;;12.00;;
64520;SDS011;50896;46.714;17.322;2023-06-22T21:41:17;16.80;;;12.55;;
64520;SDS011;50896;46.714;17.322;2023-06-22T21:43:44;15.48;;;11.88;;
64520;SDS011;50896;46.714;17.322;2023-06-22T21:46:11;14.80;;;11.18;;
64520;SDS011;50896;46.714;17.322;2023-06-22T21:48:38;17.42;;;12.15;;
64520;SDS011;50896;46.714;17.322;2023-06-22T21:51:06;16.92;;;12.15;;
64520;SDS011;50896;46.714;17.322;2023-06-22T21:53:33;16.20;;;11.82;;
64520;SDS011;50896;46.714;17.322;2023-06-22T21:55:59;14.40;;;11.52;;
64520;SDS011;50896;46.714;17.322;2023-06-22T21:58:26;15.80;;;12.10;;
64520;SDS011;50896;46.714;17.322;2023-06-22T22:00:54;16.75;;;11.80;;
64520;SDS011;50896;46.714;17.322;2023-06-22T22:03:22;15.73;;;12.07;;
64520;SDS011;50896;46.714;17.322;2023-06-22T22:05:53;13.82;;;11.55;;
64520;SDS011;50896;46.714;17.322;2023-06-22T22:08:20;14.43;;;11.05;;
64520;SDS011;50896;46.714;17.322;2023-06-22T22:10:47;13.80;;;10.82;;
64520;SDS011;50896;46.714;17.322;2023-06-22T22:13:14;16.52;;;10.88;;
64520;SDS011;50896;46.714;17.322;2023-06-22T22:15:42;17.63;;;10.68;;
64520;SDS011;50896;46.714;17.322;2023-06-22T22:18:10;16.85;;;11.20;;
64520;SDS011;50896;46.714;17.322;2023-06-22T22:20:37;17.58;;;11.18;;
64520;SDS011;50896;46.714;17.322;2023-06-22T22:23:04;14.70;;;11.05;;
64520;SDS011;50896;46.714;17.322;2023-06-22T22:25:31;15.88;;;11.65;;
64520;SDS011;50896;46.714;17.322;2023-06-22T22:27:58;13.68;;;10.93;;
64520;SDS011;50896;46.714;17.322;2023-06-22T22:30:25;15.02;;;10.00;;
64520;SDS011;50896;46.714;17.322;2023-06-22T22:32:51;12.50;;;10.30;;
64520;SDS011;50896;46.714;17.322;2023-06-22T22:35:18;14.98;;;10.57;;
64520;SDS011;50896;46.714;17.322;2023-06-22T22:37:45;14.63;;;10.75;;
64520;SDS011;50896;46.714;17.322;2023-06-22T22:40:12;15.15;;;10.10;;
64520;SDS011;50896;46.714;17.322;2023-06-22T22:42:39;15.05;;;10.25;;
64520;SDS011;50896;46.714;17.322;2023-06-22T22:45:06;14.63;;;10.75;;
64520;SDS011;50896;46.714;17.322;2023-06-22T22:47:33;16.42;;;10.57;;
64520;SDS011;50896;46.714;17.322;2023-06-22T22:50:00;13.98;;;9.82;;
64520;SDS011;50896;46.714;17.322;2023-06-22T22:52:28;16.02;;;9.20;;
64520;SDS011;50896;46.714;17.322;2023-06-22T22:54:56;18.38;;;9.85;;
64520;SDS011;50896;46.714;17.322;2023-06-22T22:57:23;13.98;;;9.45;;
64520;SDS011;50896;46.714;17.322;2023-06-22T22:59:50;15.77;;;8.93;;
64520;SDS011;50896;46.714;17.322;2023-06-22T23:02:17;17.85;;;9.68;;
64520;SDS011;50896;46.714;17.322;2023-06-22T23:04:44;12.93;;;8.68;;
64520;SDS011;50896;46.714;17.322;2023-06-22T23:07:10;14.05;;;9.32;;
64520;SDS011;50896;46.714;17.322;2023-06-22T23:09:37;14.20;;;9.35;;
64520;SDS011;50896;46.714;17.322;2023-06-22T23:12:04;13.88;;;8.77;;
64520;SDS011;50896;46.714;17.322;2023-06-22T23:14:32;12.93;;;8.82;;
64520;SDS011;50896;46.714;17.322;2023-06-22T23:16:59;14.02;;;8.68;;
64520;SDS011;50896;46.714;17.322;2023-06-22T23:19:26;12.55;;;8.88;;
64520;SDS011;50896;46.714;17.322;2023-06-22T23:21:52;12.57;;;8.73;;
64520;SDS011;50896;46.714;17.322;2023-06-22T23:24:19;13.32;;;8.25;;
64520;SDS011;50896;46.714;17.322;2023-06-22T23:26:46;14.23;;;8.68;;
64520;SDS011;50896;46.714;17.322;2023-06-22T23:29:14;10.88;;;8.48;;
64520;SDS011;50896;46.714;17.322;2023-06-22T23:31:42;12.20;;;8.98;;
64520;SDS011;50896;46.714;17.322;2023-06-22T23:34:09;12.10;;;8.60;;
64520;SDS011;50896;46.714;17.322;2023-06-22T23:36:36;12.88;;;8.77;;
64520;SDS011;50896;46.714;17.322;2023-06-22T23:39:04;16.00;;;9.45;;
64520;SDS011;50896;46.714;17.322;2023-06-22T23:41:33;15.40;;;8.63;;
64520;SDS011;50896;46.714;17.322;2023-06-22T23:44:00;14.55;;;8.77;;
64520;SDS011;50896;46.714;17.322;2023-06-22T23:46:27;14.45;;;8.57;;
64520;SDS011;50896;46.714;17.322;2023-06-22T23:48:57;16.10;;;9.00;;
64520;SDS011;50896;46.714;17.322;2023-06-22T23:51:24;16.77;;;9.40;;
64520;SDS011;50896;46.714;17.322;2023-06-22T23:53:54;11.52;;;8.73;;
64520;SDS011;50896;46.714;17.322;2023-06-22T23:56:22;15.00;;;9.20;;
64520;SDS011;50896;46.714;17.322;2023-06-22T23:58:50;15.65;;;8.77;;
